メインページ
METAR-TAF:

METAR-TAF

空港 :

ヤウンデ・ンシマレン国際空港

ヤウンデ, カメルーン

緯度: 03-50N, 経度: 011-31E, 海抜: 751m

現時点の気象観測

当レポートは25分前の09:00(UTC)に作成
気温 23°C
湿度 83%
気圧 1019 hPa
視程: 8000m
高度1100ftの千切れ雲あり

METAR: FKYS 190900Z /////KT 8000 BKN011 23/20 Q1019 NOSIG

時間: 10:25 (09:25 UTC)

予報

当レポートは4時間25分前の05:00(UTC)に作成
予報は19日の 06時(UTC)から 20日の 06時(UTC)まで有効
変向風 5kt
視程10km以上
高度600ftの千切れ雲あり
19日の 08時(UTC)から 19日の 10時(UTC)まで徐々に
高度1600ftの千切れ雲あり
19日の 18時(UTC)から 19日の 22時(UTC)まで徐々に
高度600ftの千切れ雲あり
確率 30% :
19日の 20時(UTC)から 20日の 03時(UTC)まで一時的に
視程: 4000m
高度600ftの千切れ雲あり
高度1300ftの雲は散在している, 積乱雲.
激しい雷雨, 雨

TAF: FKYS 190500Z 1906/2006 VRB05KT 9999 BKN006 BECMG 1908/1910 BKN016 BECMG 1918/1922 BKN006 PROB30 TEMPO 1920/2003 4000 TSRA BKN006 SCT013CB

4,000以上の空港の気象観測と天気予報(METAR報とTAF報)

利用可能な観測所は地図上に黄色い丸と赤い丸で示す。

丸の上にカーソルを重ねると観測所名を参照できる。

次にクリックすると気象観測と天気予報を参照できる。

マップの切り替え:黒色「×」印の緑ボタンをクリックして拡大、「-」印の緑ボタンをクリックして縮小、緑色の三角印をクリックして隣りの地図に切り替え


METAR-TAF: